createdAt,value
2018-09-12T00:02:04.126Z,20.10
2018-09-12T00:04:34.665Z,20.10
2018-09-12T00:07:14.417Z,20.00
2018-09-12T00:09:46.801Z,20.00
2018-09-12T00:12:18.096Z,20.00
2018-09-12T00:14:47.458Z,19.90
2018-09-12T00:17:28.088Z,19.90
2018-09-12T00:20:02.678Z,19.80
2018-09-12T00:22:32.201Z,19.80
2018-09-12T00:25:04.035Z,19.80
2018-09-12T00:27:33.925Z,19.70
2018-09-12T00:30:08.545Z,19.70
2018-09-12T00:32:40.965Z,19.60
2018-09-12T00:35:35.418Z,19.60
2018-09-12T00:38:30.404Z,19.50
2018-09-12T00:41:07.577Z,19.50
2018-09-12T00:43:37.619Z,19.50
2018-09-12T00:46:09.589Z,19.50
2018-09-12T00:48:38.644Z,19.50
2018-09-12T00:51:08.048Z,19.50
2018-09-12T00:53:37.470Z,19.40
2018-09-12T00:59:04.129Z,19.40
2018-09-12T01:01:47.410Z,19.30
2018-09-12T01:04:16.829Z,19.30
2018-09-12T01:06:47.419Z,19.30
2018-09-12T01:09:16.503Z,19.30
2018-09-12T01:11:45.471Z,19.30
2018-09-12T01:14:14.575Z,19.20
2018-09-12T01:16:44.024Z,19.20
2018-09-12T01:19:13.116Z,19.20
2018-09-12T01:21:42.118Z,19.20
2018-09-12T01:24:11.248Z,19.20
2018-09-12T01:26:40.193Z,19.10
2018-09-12T01:29:09.401Z,19.10
2018-09-12T01:31:38.968Z,19.10
2018-09-12T01:34:09.351Z,19.10
2018-09-12T01:36:40.512Z,19.10
2018-09-12T01:39:10.643Z,19.00
2018-09-12T01:41:39.690Z,19.00
2018-09-12T01:44:10.658Z,18.90
2018-09-12T01:46:40.331Z,18.90
2018-09-12T01:49:12.987Z,18.90
2018-09-12T01:51:42.385Z,18.90
2018-09-12T01:54:11.497Z,18.80
2018-09-12T01:56:40.558Z,18.80
2018-09-12T01:59:11.441Z,18.80
2018-09-12T02:01:40.529Z,18.70
2018-09-12T02:04:10.181Z,18.70
2018-09-12T02:06:39.272Z,18.70
2018-09-12T02:09:13.469Z,18.70
2018-09-12T02:11:46.202Z,18.60
2018-09-12T02:14:15.520Z,18.60
2018-09-12T02:16:48.884Z,18.60
2018-09-12T02:19:17.806Z,18.60
2018-09-12T02:21:47.229Z,18.60
2018-09-12T02:24:16.424Z,18.50
2018-09-12T02:26:45.871Z,18.50
2018-09-12T02:29:16.303Z,18.50
2018-09-12T02:31:46.168Z,18.40
2018-09-12T02:34:15.319Z,18.50
2018-09-12T02:36:45.160Z,18.40
2018-09-12T02:39:15.518Z,18.40
2018-09-12T02:41:45.139Z,18.40
2018-09-12T02:44:14.140Z,18.40
2018-09-12T02:46:43.233Z,18.30
2018-09-12T02:49:13.138Z,18.40
2018-09-12T02:51:42.302Z,18.30
2018-09-12T02:54:11.355Z,18.30
2018-09-12T02:56:41.320Z,18.30
2018-09-12T03:01:44.954Z,18.20
2018-09-12T03:04:14.531Z,18.20
2018-09-12T03:06:43.559Z,18.20
2018-09-12T03:09:12.924Z,18.20
2018-09-12T03:11:42.639Z,18.20
2018-09-12T03:14:11.553Z,18.10
2018-09-12T03:16:40.871Z,18.00
2018-09-12T03:19:11.582Z,18.00
2018-09-12T03:21:40.791Z,17.90
2018-09-12T03:24:09.830Z,17.90
2018-09-12T03:26:38.765Z,17.90
2018-09-12T03:29:07.878Z,17.90
2018-09-12T03:31:37.489Z,17.90
2018-09-12T03:34:06.828Z,17.90
2018-09-12T03:36:35.767Z,17.90
2018-09-12T03:39:07.100Z,17.90
2018-09-12T03:41:36.036Z,17.90
2018-09-12T03:44:05.151Z,17.90
2018-09-12T03:46:34.200Z,17.80
2018-09-12T03:49:03.216Z,17.80
2018-09-12T03:51:32.202Z,17.80
2018-09-12T03:54:01.076Z,17.70
2018-09-12T03:56:30.188Z,17.60
2018-09-12T03:58:59.667Z,17.50
2018-09-12T04:01:29.199Z,17.50
2018-09-12T04:03:58.369Z,17.50
2018-09-12T04:06:30.067Z,17.50
2018-09-12T04:09:00.949Z,17.40
2018-09-12T04:11:32.810Z,17.40
2018-09-12T04:14:01.720Z,17.40
2018-09-12T04:16:31.472Z,17.40
2018-09-12T04:19:00.711Z,17.40
2018-09-12T04:21:29.814Z,17.40
2018-09-12T04:23:58.941Z,17.30
2018-09-12T04:26:28.265Z,17.30
2018-09-12T04:28:59.138Z,17.30
2018-09-12T04:31:28.721Z,17.30
2018-09-12T04:33:57.841Z,17.30
2018-09-12T04:36:26.970Z,17.20
2018-09-12T04:38:56.107Z,17.20
2018-09-12T04:41:25.080Z,17.20
2018-09-12T04:43:54.519Z,17.20
2018-09-12T04:46:24.436Z,17.20
2018-09-12T04:48:53.693Z,17.20
2018-09-12T04:51:22.890Z,17.20
2018-09-12T04:53:51.886Z,17.20
2018-09-12T04:56:21.235Z,17.20
2018-09-12T04:58:50.963Z,17.10
2018-09-12T05:01:22.232Z,17.20
2018-09-12T05:03:51.264Z,17.10
2018-09-12T05:06:20.236Z,17.10
2018-09-12T05:08:49.220Z,17.00
2018-09-12T05:11:18.791Z,17.00
2018-09-12T05:13:48.874Z,16.90
2018-09-12T05:16:18.032Z,16.90
2018-09-12T05:18:46.924Z,16.90
2018-09-12T05:21:15.848Z,16.90
2018-09-12T05:23:45.275Z,16.90
2018-09-12T05:26:15.111Z,16.90
2018-09-12T05:28:45.564Z,16.90
2018-09-12T05:31:15.757Z,16.90
2018-09-12T05:33:45.181Z,16.90
2018-09-12T05:36:14.275Z,17.00
2018-09-12T05:38:46.207Z,17.00
2018-09-12T05:41:18.669Z,17.10
2018-09-12T05:43:55.215Z,17.10
2018-09-12T05:46:27.320Z,17.10
2018-09-12T05:48:57.193Z,17.10
2018-09-12T05:51:29.627Z,17.10
2018-09-12T05:54:34.712Z,17.10
2018-09-12T05:57:07.733Z,17.20
2018-09-12T06:00:10.672Z,17.20
2018-09-12T06:02:45.889Z,17.20
2018-09-12T06:05:32.878Z,17.20
2018-09-12T06:08:02.838Z,17.20
2018-09-12T06:10:34.873Z,17.20
2018-09-12T06:15:40.089Z,17.30
2018-09-12T06:18:12.331Z,17.30
2018-09-12T06:20:41.499Z,17.40
2018-09-12T06:23:10.728Z,17.40
2018-09-12T06:25:39.872Z,17.50
2018-09-12T06:28:09.586Z,17.50
2018-09-12T06:30:42.759Z,17.90
2018-09-12T06:33:13.761Z,18.50
2018-09-12T06:35:44.158Z,18.90
2018-09-12T06:38:13.803Z,19.00
2018-09-12T06:40:43.865Z,19.00
2018-09-12T06:43:13.169Z,18.80
2018-09-12T06:45:43.277Z,18.70
2018-09-12T06:48:12.532Z,18.60
2018-09-12T06:50:42.728Z,18.60
2018-09-12T06:53:12.572Z,18.70
2018-09-12T06:55:41.721Z,18.60
2018-09-12T06:58:11.332Z,18.50
2018-09-12T07:00:40.982Z,18.60
2018-09-12T07:03:09.976Z,18.60
2018-09-12T07:05:39.435Z,18.80
2018-09-12T07:08:09.291Z,18.90
2018-09-12T07:10:38.998Z,19.20
2018-09-12T07:13:08.179Z,19.40
2018-09-12T07:15:37.472Z,19.40
2018-09-12T07:18:08.159Z,19.30
2018-09-12T07:20:38.202Z,19.40
2018-09-12T07:23:07.788Z,19.40
2018-09-12T07:25:39.182Z,19.60
2018-09-12T07:28:09.354Z,19.50
2018-09-12T07:30:41.846Z,19.60
2018-09-12T07:33:12.781Z,19.80
2018-09-12T07:35:43.573Z,19.90
2018-09-12T07:38:12.989Z,20.00
2018-09-12T07:40:44.388Z,20.00
2018-09-12T07:43:14.189Z,20.10
2018-09-12T07:45:43.431Z,20.20
2018-09-12T07:48:13.789Z,20.20
2018-09-12T07:50:48.478Z,20.30
2018-09-12T07:53:17.895Z,20.30
2018-09-12T07:55:53.969Z,20.30
2018-09-12T07:58:26.102Z,20.30
2018-09-12T08:01:00.546Z,20.40
2018-09-12T08:03:44.841Z,20.70
2018-09-12T08:06:29.030Z,21.10
2018-09-12T08:09:00.493Z,21.30
2018-09-12T08:11:29.810Z,21.30
2018-09-12T08:14:04.101Z,21.40
2018-09-12T08:16:47.243Z,21.50
2018-09-12T08:19:20.238Z,21.50
2018-09-12T08:21:49.444Z,21.40
2018-09-12T08:24:29.632Z,21.40
2018-09-12T08:27:05.335Z,21.50
2018-09-12T08:29:35.581Z,21.40
2018-09-12T08:32:05.003Z,21.60
2018-09-12T08:34:40.471Z,22.10
2018-09-12T08:37:09.625Z,23.20
2018-09-12T08:39:38.832Z,24.40
2018-09-12T08:42:08.310Z,25.40
2018-09-12T08:44:37.755Z,26.60
2018-09-12T08:47:07.190Z,27.00
2018-09-12T08:49:37.107Z,26.80
2018-09-12T08:52:12.953Z,27.40
2018-09-12T08:54:42.587Z,27.90
2018-09-12T08:57:12.217Z,28.70
2018-09-12T08:59:41.185Z,29.40
2018-09-12T09:02:10.632Z,29.40
2018-09-12T09:04:39.749Z,29.60
2018-09-12T09:07:09.133Z,29.70
2018-09-12T09:09:41.579Z,28.60
2018-09-12T09:12:10.891Z,29.60
2018-09-12T09:14:40.372Z,31.40
2018-09-12T09:17:11.069Z,31.70
2018-09-12T09:19:42.469Z,31.20
2018-09-12T09:22:11.721Z,31.20
2018-09-12T09:24:46.551Z,31.40
2018-09-12T09:27:16.423Z,31.40
2018-09-12T09:29:46.569Z,29.90
2018-09-12T09:32:17.078Z,29.80
2018-09-12T09:34:46.552Z,30.40
2018-09-12T09:37:17.232Z,30.50
2018-09-12T09:39:46.709Z,31.30
2018-09-12T09:42:15.741Z,31.40
2018-09-12T09:44:45.001Z,30.10
2018-09-12T09:47:14.767Z,30.00
2018-09-12T09:49:44.429Z,30.50
2018-09-12T09:52:14.187Z,30.90
2018-09-12T09:54:44.227Z,31.40
2018-09-12T09:57:13.544Z,32.10
2018-09-12T09:59:43.796Z,32.20
2018-09-12T10:02:20.043Z,33.00
2018-09-12T10:04:55.777Z,31.60
2018-09-12T10:07:30.623Z,31.60
2018-09-12T10:10:08.948Z,30.30
2018-09-12T10:12:38.149Z,29.00
2018-09-12T10:15:09.395Z,27.80
2018-09-12T10:17:39.340Z,27.60
2018-09-12T10:20:08.802Z,28.90
2018-09-12T10:22:38.060Z,29.30
2018-09-12T10:25:08.298Z,29.50
2018-09-12T10:27:38.439Z,30.20
2018-09-12T10:30:11.443Z,30.80
2018-09-12T10:32:42.626Z,31.10
2018-09-12T10:35:12.189Z,31.50
2018-09-12T10:37:41.598Z,31.70
2018-09-12T10:40:11.131Z,31.10
2018-09-12T10:42:41.519Z,31.00
2018-09-12T10:45:11.580Z,30.30
2018-09-12T10:47:42.187Z,29.30
2018-09-12T10:50:12.960Z,29.60
2018-09-12T10:52:43.008Z,30.70
2018-09-12T10:55:13.538Z,31.90
2018-09-12T10:57:45.841Z,31.00
2018-09-12T11:00:15.198Z,30.00
2018-09-12T11:02:46.283Z,28.90
2018-09-12T11:05:16.232Z,28.20
2018-09-12T11:07:46.240Z,28.20
2018-09-12T11:10:15.382Z,29.00
2018-09-12T11:12:46.502Z,28.20
2018-09-12T11:15:16.590Z,28.00
2018-09-12T11:17:46.428Z,28.70
2018-09-12T11:20:16.609Z,29.70
2018-09-12T11:22:48.572Z,30.60
2018-09-12T11:25:18.276Z,31.00
2018-09-12T11:27:50.104Z,31.10
2018-09-12T11:30:21.518Z,31.30
2018-09-12T11:32:50.752Z,31.40
2018-09-12T11:35:28.816Z,31.60
2018-09-12T11:38:01.462Z,31.60
2018-09-12T11:40:33.772Z,32.00
2018-09-12T11:43:09.448Z,32.70
2018-09-12T11:45:39.088Z,32.10
2018-09-12T11:48:11.768Z,31.00
2018-09-12T11:50:43.785Z,30.60
2018-09-12T11:53:14.842Z,31.20
2018-09-12T11:55:44.588Z,31.50
2018-09-12T11:58:13.831Z,32.30
2018-09-12T12:00:45.553Z,33.40
2018-09-12T12:03:21.581Z,33.40
2018-09-12T12:05:53.983Z,32.40
2018-09-12T12:08:27.120Z,31.90
2018-09-12T12:11:04.037Z,32.40
2018-09-12T12:13:36.840Z,33.30
2018-09-12T12:16:09.941Z,32.20
2018-09-12T12:18:43.011Z,31.10
2018-09-12T12:21:12.361Z,31.50
2018-09-12T12:23:44.278Z,31.00
2018-09-12T12:26:14.066Z,30.80
2018-09-12T12:28:44.337Z,30.60
2018-09-12T12:31:32.994Z,30.70
2018-09-12T12:34:07.832Z,30.40
2018-09-12T12:36:39.174Z,30.10
2018-09-12T12:39:21.518Z,29.60
2018-09-12T12:41:56.898Z,30.00
2018-09-12T12:44:43.101Z,30.80
2018-09-12T12:47:13.635Z,31.40
2018-09-12T12:49:45.788Z,32.00
2018-09-12T12:52:15.473Z,32.60
2018-09-12T12:54:52.691Z,32.60
2018-09-12T12:57:26.745Z,32.60
2018-09-12T12:59:56.598Z,32.60
2018-09-12T13:02:42.198Z,33.00
2018-09-12T13:05:26.038Z,32.30
2018-09-12T13:08:04.667Z,32.60
2018-09-12T13:10:45.182Z,32.80
2018-09-12T13:13:16.672Z,33.10
2018-09-12T13:15:57.693Z,33.40
2018-09-12T13:18:28.301Z,33.10
2018-09-12T13:21:04.740Z,32.50
2018-09-12T13:23:36.611Z,32.40
2018-09-12T13:26:21.566Z,32.10
2018-09-12T13:28:52.280Z,32.10
2018-09-12T13:31:36.291Z,32.60
2018-09-12T13:34:20.302Z,32.30
2018-09-12T13:36:58.318Z,32.60
2018-09-12T13:39:30.047Z,32.10
2018-09-12T13:42:01.507Z,32.60
2018-09-12T13:44:40.728Z,31.50
2018-09-12T13:50:37.346Z,30.10
2018-09-12T13:53:18.375Z,29.90
2018-09-12T13:56:17.805Z,30.80
2018-09-12T13:59:00.175Z,30.40
2018-09-12T14:02:02.495Z,29.40
2018-09-12T14:04:54.752Z,28.40
2018-09-12T14:07:29.545Z,28.00
2018-09-12T14:10:13.701Z,27.50
2018-09-12T14:12:48.706Z,27.30
2018-09-12T14:15:18.647Z,27.40
2018-09-12T14:17:48.678Z,27.70
2018-09-12T14:20:20.617Z,27.50
2018-09-12T14:22:52.342Z,27.30
2018-09-12T14:25:23.514Z,27.40
2018-09-12T14:27:53.635Z,27.40
2018-09-12T14:30:23.719Z,27.30
2018-09-12T14:32:53.725Z,27.10
2018-09-12T14:35:24.663Z,26.90
2018-09-12T14:37:54.789Z,26.80
2018-09-12T14:40:27.538Z,26.80
2018-09-12T14:42:59.904Z,26.70
2018-09-12T14:45:30.658Z,26.80
2018-09-12T14:48:01.262Z,26.20
2018-09-12T14:50:35.921Z,26.20
2018-09-12T14:53:06.741Z,25.70
2018-09-12T14:55:36.166Z,25.50
2018-09-12T14:58:06.910Z,25.00
2018-09-12T15:00:39.111Z,25.00
2018-09-12T15:03:11.292Z,24.80
2018-09-12T15:05:40.800Z,24.90
2018-09-12T15:08:10.201Z,24.90
2018-09-12T15:10:40.707Z,24.90
2018-09-12T15:13:11.167Z,24.70
2018-09-12T15:15:41.331Z,24.40
2018-09-12T15:18:10.668Z,24.20
2018-09-12T15:20:43.239Z,24.00
2018-09-12T15:23:19.128Z,23.90
2018-09-12T15:26:02.626Z,23.80
2018-09-12T15:28:44.721Z,23.80
2018-09-12T15:31:16.306Z,23.60
2018-09-12T15:36:33.259Z,23.30
2018-09-12T15:39:24.287Z,23.50
2018-09-12T15:42:06.579Z,23.60
2018-09-12T15:44:39.750Z,23.60
2018-09-12T15:47:51.429Z,23.40
2018-09-12T15:53:26.845Z,22.80
2018-09-12T15:55:56.711Z,22.80
2018-09-12T15:58:32.553Z,22.70
2018-09-12T16:01:08.406Z,22.30
2018-09-12T16:04:11.127Z,22.40
2018-09-12T16:06:43.176Z,22.30
2018-09-12T16:09:16.992Z,22.10
2018-09-12T16:11:55.200Z,21.80
2018-09-12T16:14:50.992Z,21.70
2018-09-12T16:20:35.012Z,21.90
2018-09-12T16:23:17.764Z,22.20
2018-09-12T16:25:57.131Z,21.80
2018-09-12T16:28:30.633Z,21.70
2018-09-12T16:33:54.646Z,21.40
2018-09-12T16:36:30.618Z,21.70
2018-09-12T16:39:18.456Z,21.70
2018-09-12T16:42:08.061Z,21.40
2018-09-12T16:44:45.549Z,21.50
2018-09-12T16:47:30.881Z,21.40
2018-09-12T16:50:41.031Z,21.40
2018-09-12T16:53:24.302Z,20.90
2018-09-12T16:56:12.731Z,20.70
2018-09-12T17:05:18.104Z,20.60
2018-09-12T17:07:53.102Z,20.60
2018-09-12T17:13:29.361Z,20.50
2018-09-12T17:16:28.970Z,20.20
2018-09-12T17:20:20.020Z,20.00
2018-09-12T17:32:22.005Z,19.90
2018-09-12T17:35:25.080Z,19.80
2018-09-12T17:41:26.466Z,19.80
2018-09-12T17:46:41.103Z,19.80
2018-09-12T17:49:14.682Z,19.60
2018-09-12T17:54:44.169Z,19.30
2018-09-12T17:57:23.503Z,19.30
2018-09-12T18:00:10.178Z,19.10
2018-09-12T18:06:20.114Z,19.40
2018-09-12T18:09:08.643Z,19.10
2018-09-12T18:11:43.104Z,18.90
2018-09-12T18:14:34.046Z,18.90
2018-09-12T18:17:10.034Z,19.10
2018-09-12T18:19:49.080Z,19.20
2018-09-12T18:22:58.731Z,19.20
2018-09-12T18:25:53.610Z,19.10
2018-09-12T18:29:02.250Z,19.10
2018-09-12T18:31:34.183Z,18.90
2018-09-12T18:34:10.561Z,18.90
2018-09-12T18:36:44.608Z,18.80
2018-09-12T18:39:16.583Z,18.90
2018-09-12T18:41:48.928Z,19.10
2018-09-12T18:44:21.475Z,19.20
2018-09-12T18:47:31.281Z,19.20
2018-09-12T18:50:36.220Z,19.00
2018-09-12T18:53:21.083Z,19.00
2018-09-12T18:56:01.730Z,18.80
2018-09-12T18:58:40.415Z,19.00
2018-09-12T19:01:20.955Z,19.10
2018-09-12T19:03:54.607Z,19.00
2018-09-12T19:06:28.143Z,18.80
2018-09-12T19:12:04.729Z,18.70
2018-09-12T19:14:43.807Z,18.90
2018-09-12T19:17:14.843Z,19.00
2018-09-12T19:19:45.587Z,18.80
2018-09-12T19:22:17.287Z,18.70
2018-09-12T19:24:48.979Z,18.60
2018-09-12T19:27:19.681Z,18.70
2018-09-12T19:29:52.176Z,18.70
2018-09-12T19:32:25.495Z,18.60
2018-09-12T19:35:04.919Z,18.60
2018-09-12T19:37:42.911Z,18.60
2018-09-12T19:40:33.768Z,18.70
2018-09-12T19:43:30.757Z,18.80
2018-09-12T19:46:14.350Z,18.80
2018-09-12T19:49:12.453Z,18.80
2018-09-12T19:51:57.812Z,18.80
2018-09-12T19:54:49.852Z,18.70
2018-09-12T19:57:20.800Z,18.90
2018-09-12T19:59:53.313Z,18.80
2018-09-12T20:02:32.271Z,18.80
2018-09-12T20:05:04.087Z,18.70
2018-09-12T20:07:41.787Z,18.50
2018-09-12T20:10:14.667Z,18.70
2018-09-12T20:12:47.178Z,18.80
2018-09-12T20:15:26.815Z,18.70
2018-09-12T20:18:11.395Z,18.80
2018-09-12T20:20:45.821Z,18.70
2018-09-12T20:23:18.278Z,18.50
2018-09-12T20:26:05.683Z,18.20
2018-09-12T20:28:46.352Z,18.20
2018-09-12T20:31:54.831Z,18.00
2018-09-12T20:34:25.476Z,18.30
2018-09-12T20:36:56.343Z,18.40
2018-09-12T20:39:30.193Z,18.50
2018-09-12T20:42:04.765Z,18.50
2018-09-12T20:44:40.460Z,18.80
2018-09-12T20:47:55.548Z,18.90
2018-09-12T20:50:26.432Z,18.90
2018-09-12T20:52:56.789Z,18.90
2018-09-12T20:55:56.221Z,19.00
2018-09-12T20:58:30.190Z,19.00
2018-09-12T21:01:04.867Z,18.90
2018-09-12T21:03:55.330Z,18.80
2018-09-12T21:06:30.432Z,18.70
2018-09-12T21:11:49.803Z,19.10
2018-09-12T21:14:20.668Z,19.20
2018-09-12T21:16:51.535Z,19.00
2018-09-12T21:19:28.139Z,19.10
2018-09-12T21:22:31.071Z,19.20
2018-09-12T21:25:05.028Z,19.20
2018-09-12T21:27:47.651Z,19.10
2018-09-12T21:30:24.332Z,19.30
2018-09-12T21:32:56.463Z,19.40
2018-09-12T21:35:28.545Z,19.20
2018-09-12T21:38:04.496Z,19.00
2018-09-12T21:43:22.959Z,19.30
2018-09-12T21:48:44.494Z,18.70
2018-09-12T21:51:17.971Z,18.40
2018-09-12T21:53:50.720Z,18.30
2018-09-12T21:56:28.554Z,18.10
2018-09-12T21:59:04.879Z,18.10
2018-09-12T22:04:15.695Z,17.70
2018-09-12T22:06:58.360Z,17.50
2018-09-12T22:09:27.479Z,17.40
2018-09-12T22:11:56.677Z,17.30
2018-09-12T22:14:26.103Z,17.20
2018-09-12T22:16:58.420Z,17.20
2018-09-12T22:19:30.348Z,17.20
2018-09-12T22:21:59.416Z,17.30
2018-09-12T22:24:29.692Z,17.30
2018-09-12T22:26:59.540Z,17.20
2018-09-12T22:29:29.155Z,17.20
2018-09-12T22:31:58.934Z,17.20
2018-09-12T22:34:28.230Z,17.20
2018-09-12T22:36:59.387Z,17.30
2018-09-12T22:39:28.699Z,17.20
2018-09-12T22:41:58.491Z,17.10
2018-09-12T22:44:27.656Z,17.10
2018-09-12T22:46:56.810Z,17.10
2018-09-12T22:49:26.234Z,17.10
2018-09-12T22:51:56.117Z,17.10
2018-09-12T22:54:25.228Z,17.10
2018-09-12T22:56:54.500Z,17.10
2018-09-12T22:59:27.095Z,16.90
2018-09-12T23:01:56.125Z,16.90
2018-09-12T23:04:29.174Z,16.90
2018-09-12T23:06:58.259Z,16.90
2018-09-12T23:09:28.491Z,16.90
2018-09-12T23:12:02.368Z,16.90
2018-09-12T23:14:31.763Z,17.00
2018-09-12T23:17:02.972Z,17.00
2018-09-12T23:19:34.313Z,17.00
2018-09-12T23:22:08.199Z,17.00
2018-09-12T23:24:38.571Z,17.00
2018-09-12T23:27:07.517Z,17.00
2018-09-12T23:29:36.736Z,17.00
2018-09-12T23:32:06.295Z,17.10
2018-09-12T23:34:37.077Z,17.20
2018-09-12T23:37:06.151Z,17.20
2018-09-12T23:39:35.529Z,17.20
2018-09-12T23:42:05.048Z,17.30
2018-09-12T23:44:34.182Z,17.30
2018-09-12T23:47:03.236Z,17.30
2018-09-12T23:49:32.152Z,17.30
2018-09-12T23:52:01.214Z,17.30
2018-09-12T23:54:33.934Z,17.30
2018-09-12T23:57:05.919Z,17.30
2018-09-12T23:59:35.338Z,17.20
